SHU5253 RJBE-UHWW
Flight info
| Callsign | SHU5253 |
|---|---|
| Flight time | 1h 44m |
| Altitude | 36000 |
| Route | YME Y18 MIHOU Y332 IGRAS/N0438F370 Z56 SABET B332 PALDU Z56 KANSU/K0806F360 G711 RIVAT G705 AGBIS B356 KESAN KESAN2N |
| Aircraft | A319/M-SDE3FGHIRWY/LB1 |
Departure
| Time | 2026-04-26 18:52 |
|---|---|
| Airport | Kobe Airport (RJBE) |
Arrival
| Time | 2026-04-26 20:37 |
|---|---|
| Airport | Vladivostok International Airport (UHWW) |
| Time | Latitude | Longitude | Altitude | Speed | Heading |
|---|---|---|---|---|---|
| 2026-04-26 18:35 | 34.63618 | 135.22862 | 27 ft | 0 kts | 354° |
| 2026-04-26 18:42 | 34.63612 | 135.22863 | 27 ft | 3 kts | 354° |
| 2026-04-26 18:42 | 34.63593 | 135.22865 | 27 ft | 3 kts | 354° |
| 2026-04-26 18:42 | 34.63575 | 135.22867 | 27 ft | 3 kts | 354° |
| 2026-04-26 18:43 | 34.63562 | 135.22869 | 27 ft | 0 kts | 354° |
| 2026-04-26 18:46 | 34.63564 | 135.22868 | 27 ft | 2 kts | 354° |
| 2026-04-26 18:46 | 34.63577 | 135.22867 | 27 ft | 0 kts | 354° |
| 2026-04-26 18:46 | 34.63573 | 135.22856 | 27 ft | 5 kts | 243° |
| 2026-04-26 18:47 | 34.63544 | 135.22808 | 27 ft | 7 kts | 233° |
| 2026-04-26 18:47 | 34.63513 | 135.22759 | 27 ft | 7 kts | 231° |
| 2026-04-26 18:47 | 34.63476 | 135.22721 | 27 ft | 7 kts | 226° |
| 2026-04-26 18:47 | 34.63458 | 135.22664 | 27 ft | 10 kts | 265° |
| 2026-04-26 18:48 | 34.63450 | 135.22559 | 27 ft | 14 kts | 265° |
| 2026-04-26 18:48 | 34.63442 | 135.22441 | 27 ft | 14 kts | 265° |
| 2026-04-26 18:48 | 34.63430 | 135.22310 | 27 ft | 19 kts | 264° |
| 2026-04-26 18:48 | 34.63417 | 135.22142 | 27 ft | 20 kts | 265° |
| 2026-04-26 18:49 | 34.63405 | 135.21973 | 27 ft | 20 kts | 265° |
| 2026-04-26 18:49 | 34.63392 | 135.21805 | 27 ft | 20 kts | 265° |
| 2026-04-26 18:49 | 34.63379 | 135.21639 | 27 ft | 20 kts | 265° |
| 2026-04-26 18:49 | 34.63365 | 135.21475 | 27 ft | 19 kts | 263° |
| 2026-04-26 18:50 | 34.63353 | 135.21314 | 27 ft | 19 kts | 265° |
| 2026-04-26 18:50 | 34.63341 | 135.21159 | 27 ft | 19 kts | 265° |
| 2026-04-26 18:50 | 34.63280 | 135.21038 | 28 ft | 17 kts | 193° |
| 2026-04-26 18:50 | 34.63182 | 135.21070 | 33 ft | 14 kts | 133° |
| 2026-04-26 18:51 | 34.63176 | 135.21184 | 31 ft | 15 kts | 84° |
| 2026-04-26 18:51 | 34.63194 | 135.21390 | 29 ft | 52 kts | 84° |
| 2026-04-26 18:51 | 34.63236 | 135.21885 | 27 ft | 26 kts | 86° |
| 2026-04-26 18:51 | 34.63238 | 135.21918 | 28 ft | 0 kts | 86° |
| 2026-04-26 18:52 | 34.63243 | 135.22004 | 29 ft | 39 kts | 85° |
| 2026-04-26 18:52 | 34.63291 | 135.22623 | 31 ft | 105 kts | 84° |
| 2026-04-26 18:52 | 34.63383 | 135.23716 | 39 ft | 155 kts | 83° |
| 2026-04-26 18:52 | 34.63437 | 135.24989 | 657 ft | 148 kts | 90° |
| 2026-04-26 18:53 | 34.62931 | 135.26089 | 1113 ft | 161 kts | 146° |
| 2026-04-26 18:53 | 34.61799 | 135.26275 | 1480 ft | 180 kts | 193° |
| 2026-04-26 18:53 | 34.60727 | 135.25390 | 1708 ft | 201 kts | 239° |
| 2026-04-26 18:53 | 34.60204 | 135.23735 | 2029 ft | 222 kts | 255° |
| 2026-04-26 18:54 | 34.59772 | 135.21827 | 2404 ft | 245 kts | 255° |
| 2026-04-26 18:54 | 34.59320 | 135.19735 | 2890 ft | 265 kts | 254° |
| 2026-04-26 18:54 | 34.58846 | 135.17553 | 3727 ft | 269 kts | 253° |
| 2026-04-26 18:54 | 34.58358 | 135.15350 | 4623 ft | 272 kts | 253° |
| 2026-04-26 18:55 | 34.57865 | 135.13159 | 5482 ft | 275 kts | 253° |
| 2026-04-26 18:55 | 34.57347 | 135.10908 | 6338 ft | 278 kts | 250° |
| 2026-04-26 18:55 | 34.56712 | 135.08691 | 7167 ft | 280 kts | 247° |
| 2026-04-26 18:55 | 34.56087 | 135.06431 | 7982 ft | 286 kts | 255° |
| 2026-04-26 18:56 | 34.55892 | 135.04008 | 8788 ft | 292 kts | 269° |
| 2026-04-26 18:56 | 34.55946 | 135.01532 | 9583 ft | 295 kts | 269° |
| 2026-04-26 18:56 | 34.56011 | 134.99029 | 10321 ft | 302 kts | 269° |
| 2026-04-26 18:56 | 34.56119 | 134.96386 | 10547 ft | 327 kts | 274° |
| 2026-04-26 18:57 | 34.56809 | 134.93724 | 11044 ft | 344 kts | 294° |
| 2026-04-26 18:57 | 34.57714 | 134.92082 | 11505 ft | 352 kts | 308° |
| 2026-04-26 18:57 | 34.60361 | 134.89742 | 12408 ft | 366 kts | 336° |
| 2026-04-26 18:57 | 34.62855 | 134.88976 | 13069 ft | 373 kts | 347° |
| 2026-04-26 18:58 | 34.65423 | 134.88387 | 13717 ft | 378 kts | 347° |
| 2026-04-26 18:58 | 34.68019 | 134.87770 | 14332 ft | 382 kts | 343° |
| 2026-04-26 18:58 | 34.70524 | 134.86710 | 14924 ft | 382 kts | 331° |
| 2026-04-26 18:58 | 34.72828 | 134.85103 | 15524 ft | 382 kts | 323° |
| 2026-04-26 18:59 | 34.75080 | 134.83364 | 16114 ft | 386 kts | 323° |
| 2026-04-26 18:59 | 34.77362 | 134.81606 | 16694 ft | 390 kts | 323° |
| 2026-04-26 18:59 | 34.79668 | 134.79836 | 17253 ft | 394 kts | 323° |
| 2026-04-26 18:59 | 34.81969 | 134.78071 | 17812 ft | 397 kts | 323° |
| 2026-04-26 19:00 | 34.84319 | 134.76273 | 18374 ft | 401 kts | 323° |
| 2026-04-26 19:00 | 34.86693 | 134.74456 | 18904 ft | 405 kts | 323° |
| 2026-04-26 19:00 | 34.89083 | 134.72626 | 19462 ft | 407 kts | 323° |
| 2026-04-26 19:00 | 34.91603 | 134.71000 | 19983 ft | 416 kts | 336° |
| 2026-04-26 19:01 | 34.94448 | 134.70168 | 20514 ft | 425 kts | 352° |
| 2026-04-26 19:01 | 34.97414 | 134.70286 | 21032 ft | 430 kts | 9° |
| 2026-04-26 19:01 | 35.00272 | 134.71369 | 21531 ft | 433 kts | 27° |
| 2026-04-26 19:01 | 35.02799 | 134.73351 | 22032 ft | 432 kts | 42° |
| 2026-04-26 19:02 | 35.05074 | 134.75689 | 22511 ft | 436 kts | 38° |
| 2026-04-26 19:02 | 35.07530 | 134.77877 | 22974 ft | 439 kts | 37° |
| 2026-04-26 19:02 | 35.10017 | 134.80068 | 23427 ft | 442 kts | 37° |
| 2026-04-26 19:02 | 35.11670 | 134.81517 | 23732 ft | 443 kts | 37° |
| 2026-04-26 19:03 | 35.15037 | 134.84464 | 24294 ft | 446 kts | 37° |
| 2026-04-26 19:03 | 35.17566 | 134.86680 | 24695 ft | 449 kts | 37° |
| 2026-04-26 19:03 | 35.20119 | 134.88920 | 25069 ft | 452 kts | 37° |
| 2026-04-26 19:03 | 35.22678 | 134.91170 | 25440 ft | 455 kts | 37° |
| 2026-04-26 19:04 | 35.25216 | 134.93410 | 25795 ft | 457 kts | 37° |
| 2026-04-26 19:04 | 35.27833 | 134.95639 | 26130 ft | 460 kts | 31° |
| 2026-04-26 19:04 | 35.30781 | 134.97186 | 26441 ft | 463 kts | 14° |
| 2026-04-26 19:04 | 35.33961 | 134.97723 | 26756 ft | 463 kts | 357° |
| 2026-04-26 19:05 | 35.40060 | 134.95705 | 27420 ft | 456 kts | 329° |
| 2026-04-26 19:05 | 35.42912 | 134.93989 | 27741 ft | 458 kts | 329° |
| 2026-04-26 19:05 | 35.45785 | 134.92256 | 28077 ft | 461 kts | 330° |
| 2026-04-26 19:06 | 35.48671 | 134.90515 | 28420 ft | 463 kts | 330° |
| 2026-04-26 19:06 | 35.51527 | 134.88798 | 28747 ft | 465 kts | 330° |
| 2026-04-26 19:06 | 35.54440 | 134.87052 | 29052 ft | 467 kts | 330° |
| 2026-04-26 19:06 | 35.57372 | 134.85298 | 29350 ft | 469 kts | 330° |
| 2026-04-26 19:07 | 35.60311 | 134.83536 | 29658 ft | 471 kts | 330° |
| 2026-04-26 19:07 | 35.63262 | 134.81762 | 29950 ft | 473 kts | 330° |
| 2026-04-26 19:07 | 35.66224 | 134.79979 | 30232 ft | 475 kts | 330° |
| 2026-04-26 19:07 | 35.69197 | 134.78186 | 30491 ft | 477 kts | 330° |
| 2026-04-26 19:08 | 35.72184 | 134.76387 | 30746 ft | 479 kts | 330° |
| 2026-04-26 19:08 | 35.75186 | 134.74576 | 30980 ft | 481 kts | 330° |
| 2026-04-26 19:08 | 35.78156 | 134.72779 | 31226 ft | 483 kts | 329° |
| 2026-04-26 19:08 | 35.81175 | 134.70953 | 31549 ft | 483 kts | 329° |
| 2026-04-26 19:09 | 35.84189 | 134.69131 | 31882 ft | 483 kts | 329° |
| 2026-04-26 19:09 | 35.87204 | 134.67310 | 32196 ft | 483 kts | 329° |
| 2026-04-26 19:09 | 35.90219 | 134.65485 | 32520 ft | 482 kts | 329° |
| 2026-04-26 19:09 | 35.93232 | 134.63660 | 32839 ft | 482 kts | 329° |
| 2026-04-26 19:10 | 35.96242 | 134.61832 | 33144 ft | 483 kts | 328° |
| 2026-04-26 19:10 | 35.99255 | 134.59997 | 33454 ft | 483 kts | 328° |
| 2026-04-26 19:10 | 36.02225 | 134.58192 | 33750 ft | 483 kts | 328° |
| 2026-04-26 19:10 | 36.05241 | 134.56358 | 33867 ft | 483 kts | 328° |
| 2026-04-26 19:11 | 36.08258 | 134.54523 | 33889 ft | 483 kts | 328° |
| 2026-04-26 19:11 | 36.14274 | 134.50855 | 33885 ft | 482 kts | 328° |
| 2026-04-26 19:12 | 36.20290 | 134.47177 | 34277 ft | 482 kts | 327° |
| 2026-04-26 19:12 | 36.23255 | 134.45362 | 34588 ft | 482 kts | 327° |
| 2026-04-26 19:12 | 36.26258 | 134.43525 | 34852 ft | 482 kts | 328° |
| 2026-04-26 19:12 | 36.29259 | 134.41691 | 35101 ft | 482 kts | 327° |
| 2026-04-26 19:13 | 36.32270 | 134.39848 | 35339 ft | 482 kts | 327° |
| 2026-04-26 19:13 | 36.35272 | 134.38004 | 35580 ft | 482 kts | 327° |
| 2026-04-26 19:13 | 36.38271 | 134.36160 | 35805 ft | 482 kts | 327° |
| 2026-04-26 19:14 | 36.44281 | 134.32462 | 35888 ft | 482 kts | 327° |
| 2026-04-26 19:14 | 36.50241 | 134.28787 | 35887 ft | 481 kts | 327° |
| 2026-04-26 19:15 | 36.56249 | 134.25079 | 35887 ft | 482 kts | 327° |
| 2026-04-26 19:15 | 36.62260 | 134.21364 | 35888 ft | 482 kts | 327° |
| 2026-04-26 19:16 | 36.68257 | 134.17648 | 35907 ft | 482 kts | 327° |
| 2026-04-26 19:16 | 36.74224 | 134.13948 | 35898 ft | 482 kts | 327° |
| 2026-04-26 19:17 | 36.80239 | 134.10212 | 35897 ft | 483 kts | 327° |
| 2026-04-26 19:17 | 36.86257 | 134.06470 | 35896 ft | 483 kts | 327° |
| 2026-04-26 19:18 | 36.92265 | 134.02712 | 35906 ft | 483 kts | 326° |
| 2026-04-26 19:18 | 36.98232 | 133.98971 | 35906 ft | 484 kts | 327° |
| 2026-04-26 19:19 | 37.04231 | 133.95224 | 35905 ft | 481 kts | 327° |
| 2026-04-26 19:19 | 37.10211 | 133.91477 | 35906 ft | 481 kts | 327° |
| 2026-04-26 19:20 | 37.16193 | 133.87714 | 35906 ft | 481 kts | 327° |
| 2026-04-26 19:20 | 37.22170 | 133.83940 | 35906 ft | 481 kts | 327° |
| 2026-04-26 19:21 | 37.28116 | 133.80190 | 35905 ft | 482 kts | 327° |
| 2026-04-26 19:21 | 37.34107 | 133.76419 | 35906 ft | 481 kts | 327° |
| 2026-04-26 19:22 | 37.40092 | 133.72641 | 35915 ft | 482 kts | 327° |
| 2026-04-26 19:22 | 37.46079 | 133.68847 | 35915 ft | 482 kts | 327° |
| 2026-04-26 19:23 | 37.52026 | 133.65071 | 35915 ft | 482 kts | 326° |
| 2026-04-26 19:23 | 37.58018 | 133.61257 | 35915 ft | 482 kts | 326° |
| 2026-04-26 19:24 | 37.64005 | 133.57442 | 35915 ft | 482 kts | 326° |
| 2026-04-26 19:24 | 37.72942 | 133.51732 | 35918 ft | 482 kts | 326° |
| 2026-04-26 19:25 | 37.77962 | 133.48515 | 35915 ft | 483 kts | 326° |
| 2026-04-26 19:25 | 37.84916 | 133.44048 | 35915 ft | 483 kts | 326° |
| 2026-04-26 19:26 | 37.90901 | 133.40204 | 35915 ft | 482 kts | 326° |
| 2026-04-26 19:26 | 37.96839 | 133.36391 | 35915 ft | 482 kts | 326° |
| 2026-04-26 19:27 | 38.02821 | 133.32543 | 35917 ft | 481 kts | 326° |
| 2026-04-26 19:27 | 38.08780 | 133.28685 | 35913 ft | 480 kts | 325° |
| 2026-04-26 19:28 | 38.14734 | 133.24828 | 35915 ft | 481 kts | 325° |
| 2026-04-26 19:28 | 38.20649 | 133.20996 | 35937 ft | 480 kts | 326° |
| 2026-04-26 19:29 | 38.26591 | 133.17134 | 35934 ft | 479 kts | 325° |
| 2026-04-26 19:29 | 38.32523 | 133.13269 | 35936 ft | 479 kts | 325° |
| 2026-04-26 19:30 | 38.38454 | 133.09394 | 35927 ft | 478 kts | 325° |
| 2026-04-26 19:30 | 38.43386 | 133.06190 | 35934 ft | 478 kts | 325° |
| 2026-04-26 19:31 | 38.50264 | 133.01699 | 35938 ft | 477 kts | 325° |
| 2026-04-26 19:31 | 38.56161 | 132.97814 | 35942 ft | 477 kts | 325° |
| 2026-04-26 19:32 | 38.62063 | 132.93931 | 35943 ft | 476 kts | 325° |
| 2026-04-26 19:32 | 38.67956 | 132.90060 | 35943 ft | 476 kts | 325° |
| 2026-04-26 19:33 | 38.73801 | 132.86215 | 35943 ft | 475 kts | 325° |
| 2026-04-26 19:33 | 38.79663 | 132.82336 | 35962 ft | 474 kts | 324° |
| 2026-04-26 19:34 | 38.85514 | 132.78452 | 35962 ft | 473 kts | 324° |
| 2026-04-26 19:34 | 38.91361 | 132.74578 | 35962 ft | 472 kts | 324° |
| 2026-04-26 19:35 | 38.97153 | 132.70739 | 35962 ft | 471 kts | 324° |
| 2026-04-26 19:35 | 39.02972 | 132.66866 | 35971 ft | 470 kts | 324° |
| 2026-04-26 19:36 | 39.07793 | 132.63651 | 35970 ft | 469 kts | 324° |
| 2026-04-26 19:36 | 39.14553 | 132.59136 | 35962 ft | 468 kts | 324° |
| 2026-04-26 19:37 | 39.20325 | 132.55280 | 35959 ft | 467 kts | 324° |
| 2026-04-26 19:37 | 39.26039 | 132.51446 | 35953 ft | 465 kts | 324° |
| 2026-04-26 19:38 | 39.31766 | 132.47588 | 35952 ft | 463 kts | 324° |
| 2026-04-26 19:38 | 39.37625 | 132.44055 | 35959 ft | 473 kts | 335° |
| 2026-04-26 19:39 | 39.44221 | 132.42704 | 35964 ft | 487 kts | 350° |
| 2026-04-26 19:39 | 39.50942 | 132.42204 | 35962 ft | 486 kts | 350° |
| 2026-04-26 19:40 | 39.57688 | 132.41683 | 35962 ft | 485 kts | 349° |
| 2026-04-26 19:40 | 39.64422 | 132.41157 | 35960 ft | 484 kts | 349° |
| 2026-04-26 19:41 | 39.71145 | 132.40645 | 35963 ft | 484 kts | 349° |
| 2026-04-26 19:41 | 39.76721 | 132.40221 | 35961 ft | 483 kts | 349° |
| 2026-04-26 19:42 | 39.84507 | 132.39627 | 35961 ft | 482 kts | 349° |
| 2026-04-26 19:42 | 39.91200 | 132.39109 | 35957 ft | 482 kts | 349° |
| 2026-04-26 19:43 | 39.97892 | 132.38599 | 35953 ft | 481 kts | 349° |
| 2026-04-26 19:43 | 40.04571 | 132.38071 | 35953 ft | 481 kts | 349° |
| 2026-04-26 19:44 | 40.11201 | 132.37552 | 35962 ft | 480 kts | 349° |
| 2026-04-26 19:44 | 40.17869 | 132.37037 | 35962 ft | 480 kts | 349° |
| 2026-04-26 19:45 | 40.24545 | 132.36517 | 35961 ft | 480 kts | 349° |
| 2026-04-26 19:45 | 40.31218 | 132.35997 | 35962 ft | 480 kts | 349° |
| 2026-04-26 19:46 | 40.37848 | 132.35471 | 35961 ft | 481 kts | 348° |
| 2026-04-26 19:46 | 40.44527 | 132.34938 | 35962 ft | 481 kts | 348° |
| 2026-04-26 19:47 | 40.50079 | 132.34498 | 35960 ft | 481 kts | 348° |
| 2026-04-26 19:47 | 40.57897 | 132.33883 | 35971 ft | 482 kts | 348° |
| 2026-04-26 19:48 | 40.64542 | 132.33367 | 35971 ft | 482 kts | 348° |
| 2026-04-26 19:48 | 40.71244 | 132.32843 | 35975 ft | 482 kts | 348° |
| 2026-04-26 19:49 | 40.77950 | 132.32313 | 35979 ft | 483 kts | 348° |
| 2026-04-26 19:49 | 40.84657 | 132.31768 | 35982 ft | 482 kts | 348° |
| 2026-04-26 19:50 | 40.91357 | 132.31227 | 35980 ft | 483 kts | 348° |
| 2026-04-26 19:50 | 40.98015 | 132.30703 | 35983 ft | 482 kts | 348° |
| 2026-04-26 19:51 | 41.04721 | 132.30165 | 35984 ft | 483 kts | 348° |
| 2026-04-26 19:51 | 41.11436 | 132.29632 | 35981 ft | 483 kts | 348° |
| 2026-04-26 19:52 | 41.18150 | 132.29098 | 35982 ft | 484 kts | 348° |
| 2026-04-26 19:52 | 41.24825 | 132.28565 | 35990 ft | 483 kts | 348° |
| 2026-04-26 19:53 | 41.31537 | 132.28025 | 35988 ft | 483 kts | 347° |
| 2026-04-26 19:53 | 41.38245 | 132.27478 | 35989 ft | 482 kts | 347° |
| 2026-04-26 19:54 | 41.44937 | 132.26907 | 35992 ft | 479 kts | 344° |
| 2026-04-26 19:54 | 41.48128 | 132.26136 | 35991 ft | 466 kts | 334° |
| 2026-04-26 19:54 | 41.51151 | 132.24763 | 35990 ft | 452 kts | 325° |
| 2026-04-26 19:55 | 41.56725 | 132.21056 | 35989 ft | 447 kts | 323° |
| 2026-04-26 19:55 | 41.62297 | 132.17341 | 35985 ft | 448 kts | 323° |
| 2026-04-26 19:56 | 41.67875 | 132.13621 | 35991 ft | 448 kts | 322° |
| 2026-04-26 19:56 | 41.73405 | 132.09935 | 35991 ft | 447 kts | 322° |
| 2026-04-26 19:57 | 41.78957 | 132.06205 | 35987 ft | 446 kts | 322° |
| 2026-04-26 19:57 | 41.84503 | 132.02466 | 35997 ft | 446 kts | 322° |
| 2026-04-26 19:58 | 41.90048 | 131.98725 | 35999 ft | 446 kts | 322° |
| 2026-04-26 19:58 | 41.95559 | 131.95006 | 35999 ft | 446 kts | 322° |
| 2026-04-26 19:59 | 42.01096 | 131.91256 | 35724 ft | 443 kts | 322° |
| 2026-04-26 19:59 | 42.03843 | 131.89403 | 35469 ft | 440 kts | 322° |
| 2026-04-26 19:59 | 42.06574 | 131.87558 | 35220 ft | 438 kts | 322° |
| 2026-04-26 20:00 | 42.09288 | 131.85722 | 34969 ft | 435 kts | 321° |
| 2026-04-26 20:00 | 42.11986 | 131.83889 | 34718 ft | 434 kts | 321° |
| 2026-04-26 20:00 | 42.14634 | 131.82081 | 34469 ft | 431 kts | 321° |
| 2026-04-26 20:00 | 42.17289 | 131.80272 | 34011 ft | 427 kts | 321° |
| 2026-04-26 20:01 | 42.19937 | 131.78467 | 33511 ft | 424 kts | 321° |
| 2026-04-26 20:01 | 42.22559 | 131.76677 | 33016 ft | 421 kts | 321° |
| 2026-04-26 20:01 | 42.25169 | 131.74895 | 32515 ft | 419 kts | 321° |
| 2026-04-26 20:01 | 42.27762 | 131.73123 | 32011 ft | 416 kts | 321° |
| 2026-04-26 20:02 | 42.30334 | 131.71362 | 31519 ft | 413 kts | 321° |
| 2026-04-26 20:02 | 42.32889 | 131.69614 | 31028 ft | 410 kts | 321° |
| 2026-04-26 20:02 | 42.35424 | 131.67878 | 30549 ft | 407 kts | 321° |
| 2026-04-26 20:02 | 42.37097 | 131.66759 | 30236 ft | 408 kts | 324° |
| 2026-04-26 20:03 | 42.40592 | 131.64849 | 29604 ft | 407 kts | 327° |
| 2026-04-26 20:03 | 42.43211 | 131.63442 | 29136 ft | 403 kts | 327° |
| 2026-04-26 20:03 | 42.45808 | 131.62049 | 28679 ft | 400 kts | 327° |
| 2026-04-26 20:03 | 42.48381 | 131.60666 | 28234 ft | 396 kts | 327° |
| 2026-04-26 20:04 | 42.50933 | 131.59293 | 27785 ft | 392 kts | 328° |
| 2026-04-26 20:04 | 42.53456 | 131.57930 | 27336 ft | 389 kts | 328° |
| 2026-04-26 20:04 | 42.55958 | 131.56572 | 26891 ft | 386 kts | 328° |
| 2026-04-26 20:04 | 42.58447 | 131.55219 | 26433 ft | 384 kts | 328° |
| 2026-04-26 20:05 | 42.60882 | 131.53896 | 25985 ft | 381 kts | 328° |
| 2026-04-26 20:05 | 42.63339 | 131.52562 | 25512 ft | 380 kts | 328° |
| 2026-04-26 20:05 | 42.65785 | 131.51233 | 25044 ft | 378 kts | 328° |
| 2026-04-26 20:05 | 42.68226 | 131.49908 | 24553 ft | 377 kts | 329° |
| 2026-04-26 20:06 | 42.70645 | 131.48595 | 24172 ft | 372 kts | 329° |
| 2026-04-26 20:06 | 42.73051 | 131.47286 | 23729 ft | 370 kts | 329° |
| 2026-04-26 20:06 | 42.75471 | 131.46123 | 23318 ft | 374 kts | 339° |
| 2026-04-26 20:06 | 42.78113 | 131.45860 | 22859 ft | 390 kts | 357° |
| 2026-04-26 20:07 | 42.80788 | 131.46766 | 22417 ft | 405 kts | 17° |
| 2026-04-26 20:07 | 42.83191 | 131.48843 | 21983 ft | 414 kts | 34° |
| 2026-04-26 20:07 | 42.85378 | 131.51309 | 21530 ft | 413 kts | 34° |
| 2026-04-26 20:07 | 42.87581 | 131.53809 | 21100 ft | 410 kts | 34° |
| 2026-04-26 20:08 | 42.89765 | 131.56288 | 20677 ft | 407 kts | 34° |
| 2026-04-26 20:08 | 42.91927 | 131.58742 | 20160 ft | 402 kts | 34° |
| 2026-04-26 20:08 | 42.94065 | 131.61165 | 19458 ft | 398 kts | 34° |
| 2026-04-26 20:08 | 42.96182 | 131.63560 | 18787 ft | 393 kts | 34° |
| 2026-04-26 20:09 | 42.98258 | 131.65956 | 18102 ft | 391 kts | 39° |
| 2026-04-26 20:09 | 43.00033 | 131.68757 | 17527 ft | 389 kts | 50° |
| 2026-04-26 20:09 | 43.01602 | 131.71702 | 17097 ft | 378 kts | 50° |
| 2026-04-26 20:09 | 43.03109 | 131.74524 | 16705 ft | 368 kts | 50° |
| 2026-04-26 20:10 | 43.04598 | 131.77308 | 16319 ft | 357 kts | 50° |
| 2026-04-26 20:10 | 43.06043 | 131.80011 | 15947 ft | 348 kts | 50° |
| 2026-04-26 20:10 | 43.07457 | 131.82657 | 15581 ft | 340 kts | 51° |
| 2026-04-26 20:10 | 43.08834 | 131.85228 | 15225 ft | 332 kts | 50° |
| 2026-04-26 20:11 | 43.10183 | 131.87748 | 14862 ft | 324 kts | 50° |
| 2026-04-26 20:11 | 43.11509 | 131.90233 | 14527 ft | 323 kts | 51° |
| 2026-04-26 20:11 | 43.12833 | 131.92716 | 14184 ft | 324 kts | 51° |
| 2026-04-26 20:12 | 43.15474 | 131.97681 | 13474 ft | 326 kts | 51° |
| 2026-04-26 20:12 | 43.16807 | 132.00191 | 13114 ft | 326 kts | 51° |
| 2026-04-26 20:12 | 43.18138 | 132.02698 | 12751 ft | 326 kts | 52° |
| 2026-04-26 20:12 | 43.19472 | 132.05211 | 12380 ft | 326 kts | 52° |
| 2026-04-26 20:13 | 43.20803 | 132.07722 | 12008 ft | 325 kts | 52° |
| 2026-04-26 20:13 | 43.22132 | 132.10231 | 11632 ft | 325 kts | 52° |
| 2026-04-26 20:13 | 43.23456 | 132.12740 | 11246 ft | 325 kts | 52° |
| 2026-04-26 20:13 | 43.24761 | 132.15206 | 10873 ft | 323 kts | 52° |
| 2026-04-26 20:14 | 43.26078 | 132.17700 | 10486 ft | 322 kts | 52° |
| 2026-04-26 20:14 | 43.27384 | 132.20179 | 10193 ft | 317 kts | 52° |
| 2026-04-26 20:14 | 43.28651 | 132.22585 | 10062 ft | 304 kts | 52° |
| 2026-04-26 20:14 | 43.29849 | 132.24864 | 9926 ft | 285 kts | 52° |
| 2026-04-26 20:15 | 43.30972 | 132.26997 | 9806 ft | 267 kts | 52° |
| 2026-04-26 20:15 | 43.32034 | 132.29017 | 9515 ft | 256 kts | 51° |
| 2026-04-26 20:15 | 43.33055 | 132.30955 | 9308 ft | 242 kts | 51° |
| 2026-04-26 20:15 | 43.34017 | 132.32786 | 9023 ft | 232 kts | 51° |
| 2026-04-26 20:16 | 43.34952 | 132.34565 | 8618 ft | 228 kts | 51° |
| 2026-04-26 20:16 | 43.35860 | 132.36292 | 8189 ft | 225 kts | 51° |
| 2026-04-26 20:16 | 43.36784 | 132.38003 | 7763 ft | 221 kts | 45° |
| 2026-04-26 20:16 | 43.37916 | 132.39318 | 7661 ft | 203 kts | 27° |
| 2026-04-26 20:17 | 43.39164 | 132.40022 | 7495 ft | 192 kts | 9° |
| 2026-04-26 20:17 | 43.40525 | 132.40152 | 6924 ft | 203 kts | 352° |
| 2026-04-26 20:17 | 43.41890 | 132.39498 | 6234 ft | 215 kts | 318° |
| 2026-04-26 20:17 | 43.42455 | 132.38424 | 6094 ft | 209 kts | 296° |
| 2026-04-26 20:18 | 43.43344 | 132.35955 | 5541 ft | 212 kts | 300° |
| 2026-04-26 20:18 | 43.44060 | 132.34264 | 5392 ft | 203 kts | 302° |
| 2026-04-26 20:18 | 43.44789 | 132.32618 | 5148 ft | 200 kts | 302° |
| 2026-04-26 20:18 | 43.45254 | 132.30831 | 4919 ft | 198 kts | 280° |
| 2026-04-26 20:19 | 43.45186 | 132.28945 | 4592 ft | 197 kts | 257° |
| 2026-04-26 20:19 | 43.44649 | 132.27289 | 4461 ft | 183 kts | 242° |
| 2026-04-26 20:19 | 43.44049 | 132.25815 | 4328 ft | 170 kts | 243° |
| 2026-04-26 20:19 | 43.43496 | 132.24442 | 4182 ft | 159 kts | 243° |
| 2026-04-26 20:20 | 43.42978 | 132.23150 | 3944 ft | 155 kts | 243° |
| 2026-04-26 20:20 | 43.42436 | 132.21793 | 3357 ft | 174 kts | 242° |
| 2026-04-26 20:20 | 43.41815 | 132.20243 | 2578 ft | 193 kts | 242° |
| 2026-04-26 20:20 | 43.41147 | 132.18582 | 1812 ft | 204 kts | 241° |
| 2026-04-26 20:21 | 43.40460 | 132.16876 | 1205 ft | 202 kts | 241° |
| 2026-04-26 20:21 | 43.39786 | 132.15202 | 649 ft | 199 kts | 241° |
| 2026-04-26 20:21 | 43.39120 | 132.13544 | 504 ft | 199 kts | 241° |
| 2026-04-26 20:21 | 43.38441 | 132.11861 | 513 ft | 214 kts | 241° |
| 2026-04-26 20:22 | 43.37628 | 132.09853 | 509 ft | 259 kts | 240° |
| 2026-04-26 20:22 | 43.36780 | 132.07751 | 525 ft | 252 kts | 241° |
| 2026-04-26 20:22 | 43.35925 | 132.05632 | 1317 ft | 253 kts | 241° |
| 2026-04-26 20:22 | 43.35066 | 132.03508 | 2413 ft | 255 kts | 241° |
| 2026-04-26 20:23 | 43.34197 | 132.01358 | 3387 ft | 261 kts | 241° |
| 2026-04-26 20:23 | 43.33303 | 131.99147 | 3816 ft | 266 kts | 242° |
| 2026-04-26 20:23 | 43.32405 | 131.96920 | 3967 ft | 266 kts | 242° |
| 2026-04-26 20:23 | 43.31508 | 131.94707 | 4002 ft | 265 kts | 242° |
| 2026-04-26 20:24 | 43.30886 | 131.92431 | 4003 ft | 245 kts | 262° |
| 2026-04-26 20:24 | 43.30919 | 131.90235 | 4004 ft | 226 kts | 284° |
| 2026-04-26 20:24 | 43.31503 | 131.88296 | 4007 ft | 218 kts | 305° |
| 2026-04-26 20:24 | 43.32535 | 131.86795 | 4002 ft | 217 kts | 325° |
| 2026-04-26 20:25 | 43.33881 | 131.85893 | 4077 ft | 216 kts | 345° |
| 2026-04-26 20:25 | 43.34870 | 131.85672 | 4158 ft | 219 kts | 359° |
| 2026-04-26 20:25 | 43.36846 | 131.86225 | 4200 ft | 220 kts | 25° |
| 2026-04-26 20:25 | 43.38084 | 131.87450 | 4205 ft | 221 kts | 45° |
| 2026-04-26 20:26 | 43.38982 | 131.89165 | 4205 ft | 222 kts | 56° |
| 2026-04-26 20:26 | 43.39811 | 131.90952 | 4204 ft | 222 kts | 56° |
| 2026-04-26 20:26 | 43.40635 | 131.92713 | 4205 ft | 221 kts | 56° |
| 2026-04-26 20:26 | 43.41470 | 131.94494 | 4205 ft | 221 kts | 56° |
| 2026-04-26 20:27 | 43.42302 | 131.96271 | 4204 ft | 221 kts | 56° |
| 2026-04-26 20:27 | 43.43137 | 131.98051 | 4204 ft | 222 kts | 56° |
| 2026-04-26 20:27 | 43.43973 | 131.99834 | 4208 ft | 222 kts | 56° |
| 2026-04-26 20:27 | 43.44808 | 132.01618 | 4204 ft | 222 kts | 56° |
| 2026-04-26 20:28 | 43.45642 | 132.03403 | 4205 ft | 222 kts | 56° |
| 2026-04-26 20:28 | 43.46474 | 132.05187 | 4206 ft | 222 kts | 56° |
| 2026-04-26 20:28 | 43.47294 | 132.06948 | 4205 ft | 222 kts | 56° |
| 2026-04-26 20:28 | 43.48125 | 132.08737 | 4205 ft | 222 kts | 56° |
| 2026-04-26 20:29 | 43.48955 | 132.10525 | 4205 ft | 222 kts | 56° |
| 2026-04-26 20:29 | 43.49785 | 132.12313 | 4205 ft | 222 kts | 56° |
| 2026-04-26 20:29 | 43.50614 | 132.14099 | 4205 ft | 222 kts | 56° |
| 2026-04-26 20:29 | 43.51444 | 132.15886 | 4205 ft | 222 kts | 56° |
| 2026-04-26 20:30 | 43.52275 | 132.17681 | 4205 ft | 222 kts | 56° |
| 2026-04-26 20:30 | 43.53083 | 132.19490 | 4207 ft | 222 kts | 59° |
| 2026-04-26 20:30 | 43.53841 | 132.21343 | 4205 ft | 222 kts | 60° |
| 2026-04-26 20:30 | 43.54581 | 132.23208 | 4204 ft | 222 kts | 60° |
| 2026-04-26 20:31 | 43.55278 | 132.25072 | 4206 ft | 222 kts | 63° |
| 2026-04-26 20:31 | 43.55891 | 132.27028 | 4205 ft | 223 kts | 67° |
| 2026-04-26 20:31 | 43.56571 | 132.28937 | 4204 ft | 222 kts | 60° |
| 2026-04-26 20:31 | 43.57026 | 132.30974 | 3915 ft | 230 kts | 91° |
| 2026-04-26 20:32 | 43.56439 | 132.33016 | 3476 ft | 234 kts | 135° |
| 2026-04-26 20:32 | 43.55081 | 132.34117 | 3398 ft | 223 kts | 161° |
| 2026-04-26 20:32 | 43.53623 | 132.34775 | 3399 ft | 219 kts | 162° |
| 2026-04-26 20:32 | 43.52161 | 132.35420 | 3403 ft | 222 kts | 162° |
| 2026-04-26 20:33 | 43.50708 | 132.36056 | 3404 ft | 222 kts | 162° |
| 2026-04-26 20:33 | 43.49224 | 132.36652 | 3397 ft | 222 kts | 171° |
| 2026-04-26 20:33 | 43.47714 | 132.36382 | 3402 ft | 221 kts | 207° |
| 2026-04-26 20:33 | 43.46572 | 132.35009 | 3409 ft | 221 kts | 236° |
| 2026-04-26 20:34 | 43.45742 | 132.33238 | 3406 ft | 220 kts | 240° |
| 2026-04-26 20:34 | 43.45075 | 132.31351 | 3366 ft | 220 kts | 256° |
| 2026-04-26 20:34 | 43.44782 | 132.29258 | 2795 ft | 226 kts | 262° |
| 2026-04-26 20:34 | 43.44498 | 132.27115 | 2186 ft | 229 kts | 252° |
| 2026-04-26 20:35 | 43.43798 | 132.25154 | 1771 ft | 223 kts | 241° |
| 2026-04-26 20:35 | 43.43086 | 132.23394 | 1692 ft | 203 kts | 240° |
| 2026-04-26 20:35 | 43.42416 | 132.21730 | 1698 ft | 195 kts | 241° |
| 2026-04-26 20:35 | 43.41772 | 132.20130 | 1358 ft | 189 kts | 241° |
| 2026-04-26 20:36 | 43.41097 | 132.18472 | 442 ft | 210 kts | 240° |
| 2026-04-26 20:36 | 43.40417 | 132.16808 | 324 ft | 193 kts | 240° |
| 2026-04-26 20:36 | 43.39787 | 132.15212 | 91 ft | 180 kts | 240° |
| 2026-04-26 20:36 | 43.39249 | 132.13876 | 67 ft | 136 kts | 241° |
| 2026-04-26 20:37 | 43.38974 | 132.13199 | 68 ft | 23 kts | 241° |
| 2026-04-26 20:37 | 43.38865 | 132.13136 | 70 ft | 15 kts | 155° |
| 2026-04-26 20:37 | 43.38812 | 132.13176 | 66 ft | 8 kts | 147° |
| 2026-04-26 20:37 | 43.38770 | 132.13235 | 69 ft | 10 kts | 108° |
| 2026-04-26 20:38 | 43.38790 | 132.13329 | 68 ft | 11 kts | 62° |
| 2026-04-26 20:38 | 43.38828 | 132.13430 | 69 ft | 13 kts | 62° |
| 2026-04-26 20:38 | 43.38874 | 132.13542 | 62 ft | 14 kts | 60° |
| 2026-04-26 20:38 | 43.38924 | 132.13665 | 69 ft | 15 kts | 60° |
| 2026-04-26 20:39 | 43.38979 | 132.13799 | 69 ft | 17 kts | 61° |
| 2026-04-26 20:39 | 43.39016 | 132.13892 | 67 ft | 15 kts | 61° |
| 2026-04-26 20:39 | 43.39089 | 132.14072 | 69 ft | 17 kts | 61° |
| 2026-04-26 20:39 | 43.39142 | 132.14203 | 69 ft | 15 kts | 61° |
| 2026-04-26 20:40 | 43.39193 | 132.14329 | 69 ft | 16 kts | 60° |
| 2026-04-26 20:40 | 43.39241 | 132.14445 | 69 ft | 14 kts | 60° |
| 2026-04-26 20:40 | 43.39290 | 132.14567 | 69 ft | 15 kts | 61° |
| 2026-04-26 20:40 | 43.39343 | 132.14701 | 69 ft | 17 kts | 61° |
| 2026-04-26 20:41 | 43.39381 | 132.14796 | 67 ft | 17 kts | 60° |
| 2026-04-26 20:41 | 43.39464 | 132.14998 | 67 ft | 19 kts | 60° |
| 2026-04-26 20:41 | 43.39529 | 132.15159 | 64 ft | 20 kts | 60° |
| 2026-04-26 20:41 | 43.39576 | 132.15275 | 62 ft | 14 kts | 61° |
| 2026-04-26 20:42 | 43.39626 | 132.15398 | 63 ft | 15 kts | 61° |
| 2026-04-26 20:42 | 43.39680 | 132.15531 | 66 ft | 17 kts | 61° |
| 2026-04-26 20:42 | 43.39738 | 132.15676 | 65 ft | 18 kts | 61° |
| 2026-04-26 20:42 | 43.39801 | 132.15830 | 63 ft | 19 kts | 61° |
| 2026-04-26 20:43 | 43.39867 | 132.15993 | 69 ft | 20 kts | 62° |
| 2026-04-26 20:43 | 43.39934 | 132.16164 | 69 ft | 21 kts | 62° |
| 2026-04-26 20:43 | 43.39992 | 132.16307 | 64 ft | 17 kts | 60° |
| 2026-04-26 20:43 | 43.40053 | 132.16455 | 62 ft | 19 kts | 62° |
| 2026-04-26 20:44 | 43.40116 | 132.16615 | 63 ft | 20 kts | 62° |
| 2026-04-26 20:44 | 43.40183 | 132.16783 | 63 ft | 21 kts | 60° |
| 2026-04-26 20:44 | 43.40236 | 132.16911 | 63 ft | 12 kts | 60° |
| 2026-04-26 20:44 | 43.40220 | 132.17007 | 65 ft | 12 kts | 148° |
| 2026-04-26 20:45 | 43.40140 | 132.17068 | 63 ft | 14 kts | 153° |
| 2026-04-26 20:45 | 43.40054 | 132.17053 | 63 ft | 15 kts | 234° |
| 2026-04-26 20:45 | 43.40002 | 132.16926 | 69 ft | 16 kts | 240° |
| 2026-04-26 20:45 | 43.39947 | 132.16790 | 67 ft | 17 kts | 241° |
| 2026-04-26 20:46 | 43.39887 | 132.16642 | 66 ft | 18 kts | 241° |
| 2026-04-26 20:46 | 43.39824 | 132.16484 | 65 ft | 19 kts | 242° |
| 2026-04-26 20:46 | 43.39768 | 132.16381 | 67 ft | 14 kts | 206° |
| 2026-04-26 20:46 | 43.39689 | 132.16420 | 67 ft | 6 kts | 152° |
| 2026-04-26 20:47 | 43.39685 | 132.16423 | 69 ft | 0 kts | 152° |